createdAt,value
2023-05-29T00:02:32.485Z,14.39
2023-05-29T00:05:54.389Z,14.31
2023-05-29T00:09:17.328Z,14.25
2023-05-29T00:12:40.032Z,14.16
2023-05-29T00:16:01.867Z,14.10
2023-05-29T00:19:25.014Z,14.02
2023-05-29T00:22:46.558Z,13.94
2023-05-29T00:26:10.065Z,13.86
2023-05-29T00:29:33.387Z,13.78
2023-05-29T00:32:57.797Z,13.71
2023-05-29T00:36:20.132Z,13.64
2023-05-29T00:39:41.837Z,13.59
2023-05-29T00:43:05.016Z,13.51
2023-05-29T00:46:27.536Z,13.45
2023-05-29T00:49:52.348Z,13.38
2023-05-29T00:53:14.094Z,13.30
2023-05-29T00:56:36.211Z,13.25
2023-05-29T01:00:00.912Z,13.18
2023-05-29T01:03:24.137Z,13.13
2023-05-29T01:06:46.596Z,13.06
2023-05-29T01:10:10.163Z,13.01
2023-05-29T01:13:35.212Z,12.93
2023-05-29T01:17:05.081Z,12.86
2023-05-29T01:20:36.260Z,12.79
2023-05-29T01:24:05.999Z,12.72
2023-05-29T01:27:33.419Z,12.66
2023-05-29T01:30:56.776Z,12.62
2023-05-29T01:34:19.346Z,12.55
2023-05-29T01:37:41.838Z,12.49
2023-05-29T01:41:03.942Z,12.42
2023-05-29T01:44:27.505Z,12.39
2023-05-29T01:47:49.941Z,12.33
2023-05-29T01:51:13.941Z,12.27
2023-05-29T01:54:35.634Z,12.23
2023-05-29T01:57:58.243Z,12.19
2023-05-29T02:01:22.007Z,12.14
2023-05-29T02:04:44.076Z,12.06
2023-05-29T02:08:06.666Z,12.03
2023-05-29T02:11:28.319Z,11.97
2023-05-29T02:14:49.677Z,11.90
2023-05-29T02:18:15.085Z,11.82
2023-05-29T02:21:36.860Z,11.78
2023-05-29T02:24:59.910Z,11.72
2023-05-29T02:28:21.799Z,11.67
2023-05-29T02:31:43.167Z,11.63
2023-05-29T02:35:06.940Z,11.59
2023-05-29T02:38:28.893Z,11.55
2023-05-29T02:41:50.608Z,11.52
2023-05-29T02:45:12.790Z,11.46
2023-05-29T02:48:34.404Z,11.43
2023-05-29T02:51:58.115Z,11.39
2023-05-29T02:55:19.932Z,11.35
2023-05-29T02:58:41.629Z,11.33
2023-05-29T03:02:03.342Z,11.29
2023-05-29T03:05:25.152Z,11.26
2023-05-29T03:08:50.766Z,11.23
2023-05-29T03:12:12.169Z,11.20
2023-05-29T03:15:33.877Z,11.18
2023-05-29T03:18:55.749Z,11.14
2023-05-29T03:22:17.644Z,11.14
2023-05-29T03:25:40.936Z,11.09
2023-05-29T03:29:03.374Z,11.08
2023-05-29T03:32:26.293Z,11.05
2023-05-29T03:35:48.471Z,11.05
2023-05-29T03:39:10.374Z,11.04
2023-05-29T03:42:33.476Z,11.03
2023-05-29T03:45:56.528Z,11.05
2023-05-29T03:49:18.969Z,11.06
2023-05-29T03:52:40.945Z,11.08
2023-05-29T03:56:02.809Z,11.10
2023-05-29T03:59:26.153Z,11.13
2023-05-29T04:02:48.411Z,11.16
2023-05-29T04:06:10.332Z,11.18
2023-05-29T04:09:32.045Z,11.21
2023-05-29T04:12:55.961Z,11.26
2023-05-29T04:16:19.465Z,11.29
2023-05-29T04:19:41.112Z,11.35
2023-05-29T04:23:03.006Z,11.40
2023-05-29T04:26:26.354Z,11.46
2023-05-29T04:29:47.777Z,11.50
2023-05-29T04:33:13.539Z,11.56
2023-05-29T04:36:40.148Z,11.62
2023-05-29T04:40:06.991Z,11.68
2023-05-29T04:43:28.720Z,11.75
2023-05-29T04:46:55.356Z,11.84
2023-05-29T04:50:18.944Z,11.95
2023-05-29T04:53:42.312Z,12.04
2023-05-29T04:57:05.863Z,12.14
2023-05-29T05:00:29.597Z,12.24
2023-05-29T05:03:51.441Z,12.36
2023-05-29T05:07:16.925Z,12.47
2023-05-29T05:10:38.377Z,12.57
2023-05-29T05:14:00.225Z,12.67
2023-05-29T05:17:23.103Z,12.78
2023-05-29T05:20:44.632Z,12.86
2023-05-29T05:24:08.055Z,12.96
2023-05-29T05:27:33.564Z,13.03
2023-05-29T05:30:57.261Z,13.13
2023-05-29T05:34:19.392Z,13.24
2023-05-29T05:37:41.296Z,13.35
2023-05-29T05:41:04.671Z,13.45
2023-05-29T05:44:27.790Z,13.57
2023-05-29T05:47:58.784Z,13.69
2023-05-29T05:51:20.589Z,13.82
2023-05-29T05:54:42.426Z,13.92
2023-05-29T05:58:05.533Z,14.02
2023-05-29T06:01:27.834Z,14.11
2023-05-29T06:04:50.017Z,14.22
2023-05-29T06:08:12.050Z,14.32
2023-05-29T06:11:33.944Z,14.41
2023-05-29T06:14:57.088Z,14.48
2023-05-29T06:18:18.603Z,14.57
2023-05-29T06:21:40.564Z,14.70
2023-05-29T06:25:04.830Z,14.83
2023-05-29T06:28:27.140Z,14.94
2023-05-29T06:31:50.828Z,15.07
2023-05-29T06:35:14.153Z,15.19
2023-05-29T06:38:36.255Z,15.31
2023-05-29T06:41:58.433Z,15.40
2023-05-29T06:45:19.864Z,15.49
2023-05-29T06:48:43.002Z,15.62
2023-05-29T06:52:04.856Z,15.75
2023-05-29T06:55:49.538Z,15.86
2023-05-29T06:59:11.208Z,15.90
2023-05-29T07:02:32.816Z,15.97
2023-05-29T07:05:56.369Z,16.03
2023-05-29T07:09:18.238Z,16.10
2023-05-29T07:12:42.144Z,16.18
2023-05-29T07:16:13.240Z,16.26
2023-05-29T07:19:47.896Z,16.33
2023-05-29T07:23:11.206Z,16.37
2023-05-29T07:26:33.516Z,16.40
2023-05-29T07:29:55.428Z,16.49
2023-05-29T07:33:17.280Z,16.56
2023-05-29T07:36:58.670Z,16.63
2023-05-29T07:40:21.835Z,16.69
2023-05-29T07:43:56.921Z,16.73
2023-05-29T07:47:18.919Z,16.79
2023-05-29T07:50:43.087Z,16.81
2023-05-29T07:54:05.150Z,16.84
2023-05-29T07:57:28.818Z,16.88
2023-05-29T08:00:53.150Z,16.99
2023-05-29T08:04:14.959Z,17.12
2023-05-29T08:07:36.546Z,17.07
2023-05-29T08:10:58.460Z,16.95
2023-05-29T08:14:21.759Z,17.00
2023-05-29T08:17:43.766Z,17.10
2023-05-29T08:21:05.397Z,17.18
2023-05-29T08:24:27.127Z,17.23
2023-05-29T08:27:49.720Z,17.31
2023-05-29T08:31:12.746Z,17.35
2023-05-29T08:34:34.146Z,17.47
2023-05-29T08:37:55.737Z,17.53
2023-05-29T08:41:23.416Z,17.60
2023-05-29T08:44:50.114Z,17.64
2023-05-29T08:48:13.759Z,17.74
2023-05-29T08:51:40.028Z,17.78
2023-05-29T08:55:02.141Z,17.86
2023-05-29T08:58:24.940Z,17.96
2023-05-29T09:01:47.252Z,17.98
2023-05-29T09:05:11.200Z,18.03
2023-05-29T09:08:34.025Z,18.08
2023-05-29T09:11:55.900Z,18.11
2023-05-29T09:15:22.215Z,18.20
2023-05-29T09:18:46.966Z,18.20
2023-05-29T09:22:13.097Z,18.29
2023-05-29T09:25:36.847Z,18.41
2023-05-29T09:28:58.431Z,18.49
2023-05-29T09:32:21.048Z,18.55
2023-05-29T09:35:43.666Z,18.58
2023-05-29T09:39:17.649Z,18.64
2023-05-29T09:42:39.853Z,18.79
2023-05-29T09:46:04.227Z,18.88
2023-05-29T09:49:28.303Z,18.89
2023-05-29T09:52:54.809Z,18.80
2023-05-29T09:56:18.440Z,18.84
2023-05-29T09:59:40.820Z,18.83
2023-05-29T10:03:02.484Z,18.83
2023-05-29T10:06:25.006Z,18.71
2023-05-29T10:09:51.703Z,18.68
2023-05-29T10:13:16.242Z,18.70
2023-05-29T10:16:43.716Z,18.79
2023-05-29T10:20:09.150Z,18.82
2023-05-29T10:23:32.089Z,18.92
2023-05-29T10:26:56.122Z,18.94
2023-05-29T10:30:29.890Z,18.88
2023-05-29T10:34:03.862Z,18.84
2023-05-29T10:37:34.533Z,18.87
2023-05-29T10:40:56.112Z,18.99
2023-05-29T10:44:50.793Z,19.10
2023-05-29T10:48:46.683Z,19.15
2023-05-29T10:52:12.873Z,19.18
2023-05-29T10:55:36.610Z,19.20
2023-05-29T10:59:01.983Z,19.26
2023-05-29T11:02:24.744Z,19.38
2023-05-29T11:17:33.634Z,19.43
2023-05-29T11:20:59.540Z,19.40
2023-05-29T11:24:24.962Z,19.37
2023-05-29T11:27:46.931Z,19.43
2023-05-29T11:31:10.903Z,19.50
2023-05-29T11:34:35.257Z,19.62
2023-05-29T11:37:57.490Z,19.62
2023-05-29T11:41:20.199Z,19.69
2023-05-29T11:44:42.163Z,19.77
2023-05-29T11:48:05.282Z,19.70
2023-05-29T11:51:28.634Z,19.60
2023-05-29T11:54:50.638Z,19.63
2023-05-29T11:58:12.024Z,19.66
2023-05-29T12:01:36.800Z,19.71
2023-05-29T12:05:08.795Z,19.77
2023-05-29T12:08:32.395Z,19.85
2023-05-29T12:11:55.512Z,19.97
2023-05-29T12:15:18.726Z,20.06
2023-05-29T12:18:40.815Z,20.10
2023-05-29T12:22:02.337Z,20.15
2023-05-29T12:25:25.757Z,20.21
2023-05-29T12:28:47.686Z,20.17
2023-05-29T12:32:12.280Z,20.16
2023-05-29T12:35:34.422Z,20.19
2023-05-29T12:38:58.174Z,20.19
2023-05-29T12:42:21.378Z,20.09
2023-05-29T12:45:43.803Z,20.13
2023-05-29T12:49:13.908Z,20.08
2023-05-29T12:52:35.466Z,20.15
2023-05-29T12:55:58.152Z,20.22
2023-05-29T12:59:21.120Z,20.33
2023-05-29T13:02:42.546Z,20.46
2023-05-29T13:06:04.709Z,20.55
2023-05-29T13:09:26.588Z,20.63
2023-05-29T13:12:54.741Z,20.64
2023-05-29T13:16:18.960Z,20.65
2023-05-29T13:19:41.226Z,20.58
2023-05-29T13:23:02.887Z,20.63
2023-05-29T13:26:24.774Z,20.63
2023-05-29T13:29:46.726Z,20.58
2023-05-29T13:33:10.134Z,20.62
2023-05-29T13:36:32.318Z,20.44
2023-05-29T13:39:53.892Z,20.38
2023-05-29T13:43:15.716Z,20.37
2023-05-29T13:46:37.115Z,20.49
2023-05-29T13:50:00.214Z,20.57
2023-05-29T13:53:21.637Z,20.63
2023-05-29T13:56:44.654Z,20.65
2023-05-29T14:00:08.844Z,20.66
2023-05-29T14:03:30.845Z,20.67
2023-05-29T14:06:54.264Z,20.74
2023-05-29T14:10:16.661Z,20.81
2023-05-29T14:13:38.109Z,20.91
2023-05-29T14:17:00.315Z,21.02
2023-05-29T14:20:21.980Z,20.97
2023-05-29T14:23:44.745Z,20.98
2023-05-29T14:27:07.774Z,21.00
2023-05-29T14:30:29.650Z,20.96
2023-05-29T14:33:51.262Z,20.89
2023-05-29T14:37:13.459Z,20.91
2023-05-29T14:40:36.847Z,20.99
2023-05-29T14:43:59.182Z,21.11
2023-05-29T14:47:21.085Z,21.16
2023-05-29T14:50:42.513Z,21.25
2023-05-29T14:54:04.306Z,21.21
2023-05-29T14:57:27.604Z,21.33
2023-05-29T15:00:48.892Z,21.30
2023-05-29T15:04:10.243Z,21.18
2023-05-29T15:07:35.016Z,20.92
2023-05-29T15:10:56.431Z,20.95
2023-05-29T15:14:20.091Z,21.06
2023-05-29T15:17:41.639Z,21.25
2023-05-29T15:21:04.184Z,21.36
2023-05-29T15:24:25.599Z,21.41
2023-05-29T15:27:48.128Z,21.48
2023-05-29T15:31:11.062Z,21.48
2023-05-29T15:34:32.923Z,21.57
2023-05-29T15:37:54.820Z,21.79
2023-05-29T15:41:16.663Z,22.07
2023-05-29T15:44:38.489Z,22.30
2023-05-29T15:48:01.870Z,22.41
2023-05-29T15:51:23.427Z,22.42
2023-05-29T15:54:45.531Z,22.33
2023-05-29T15:58:07.813Z,22.29
2023-05-29T16:01:29.258Z,22.22
2023-05-29T16:05:05.592Z,22.11
2023-05-29T16:08:28.616Z,21.80
2023-05-29T16:11:49.988Z,21.75
2023-05-29T16:15:11.897Z,21.76
2023-05-29T16:18:33.371Z,21.65
2023-05-29T16:21:56.597Z,21.55
2023-05-29T16:25:18.617Z,21.58
2023-05-29T16:28:40.215Z,21.65
2023-05-29T16:32:02.626Z,21.49
2023-05-29T16:35:24.434Z,21.59
2023-05-29T16:38:48.027Z,21.65
2023-05-29T16:42:10.196Z,21.74
2023-05-29T16:45:31.993Z,21.57
2023-05-29T16:48:54.190Z,21.59
2023-05-29T16:52:20.399Z,21.47
2023-05-29T16:55:43.572Z,21.48
2023-05-29T16:59:05.490Z,21.43
2023-05-29T17:02:27.191Z,21.45
2023-05-29T17:05:48.490Z,21.58
2023-05-29T17:09:10.171Z,21.48
2023-05-29T17:12:33.304Z,21.54
2023-05-29T17:15:55.237Z,21.68
2023-05-29T17:19:16.999Z,21.53
2023-05-29T17:22:38.714Z,21.50
2023-05-29T17:26:01.137Z,21.38
2023-05-29T17:29:24.335Z,21.21
2023-05-29T17:32:46.079Z,21.03
2023-05-29T17:36:08.278Z,20.81
2023-05-29T17:39:30.364Z,20.50
2023-05-29T17:42:52.061Z,20.49
2023-05-29T17:46:19.827Z,20.34
2023-05-29T17:49:41.605Z,20.09
2023-05-29T17:53:03.188Z,20.05
2023-05-29T17:56:25.266Z,19.97
2023-05-29T17:59:46.826Z,19.93
2023-05-29T18:03:10.273Z,19.89
2023-05-29T18:06:32.343Z,19.74
2023-05-29T18:09:54.207Z,19.65
2023-05-29T18:13:16.089Z,19.61
2023-05-29T18:16:38.163Z,19.57
2023-05-29T18:20:01.161Z,19.55
2023-05-29T18:23:23.549Z,19.52
2023-05-29T18:26:45.233Z,19.44
2023-05-29T18:30:08.385Z,19.36
2023-05-29T18:33:30.090Z,19.31
2023-05-29T18:36:53.376Z,19.23
2023-05-29T18:40:15.168Z,19.09
2023-05-29T18:43:36.818Z,19.01
2023-05-29T18:46:58.591Z,18.92
2023-05-29T18:50:20.671Z,18.87
2023-05-29T18:53:45.322Z,18.79
2023-05-29T18:57:08.224Z,18.65
2023-05-29T19:00:29.869Z,18.59
2023-05-29T19:03:52.077Z,18.55
2023-05-29T19:07:13.991Z,18.47
2023-05-29T19:10:38.277Z,18.32
2023-05-29T19:14:00.025Z,18.22
2023-05-29T19:17:21.960Z,18.11
2023-05-29T19:20:43.946Z,18.03
2023-05-29T19:24:06.937Z,17.91
2023-05-29T19:27:30.230Z,17.85
2023-05-29T19:30:52.608Z,17.77
2023-05-29T19:34:14.134Z,17.73
2023-05-29T19:37:35.878Z,17.62
2023-05-29T19:40:57.899Z,17.56
2023-05-29T19:44:21.439Z,17.48
2023-05-29T19:47:43.767Z,17.44
2023-05-29T19:51:05.906Z,17.42
2023-05-29T19:54:28.243Z,17.41
2023-05-29T19:57:50.142Z,17.34
2023-05-29T20:01:13.330Z,17.30
2023-05-29T20:04:36.362Z,17.27
2023-05-29T20:07:58.106Z,17.20
2023-05-29T20:11:19.869Z,17.16
2023-05-29T20:14:42.397Z,17.12
2023-05-29T20:18:06.365Z,17.07
2023-05-29T20:21:28.096Z,17.02
2023-05-29T20:24:49.616Z,16.97
2023-05-29T20:28:11.860Z,16.88
2023-05-29T20:31:34.045Z,16.81
2023-05-29T20:34:56.960Z,16.71
2023-05-29T20:38:18.904Z,16.62
2023-05-29T20:41:41.028Z,16.56
2023-05-29T20:45:03.805Z,16.51
2023-05-29T20:48:26.043Z,16.46
2023-05-29T20:51:49.605Z,16.39
2023-05-29T20:55:11.800Z,16.31
2023-05-29T20:58:33.652Z,16.25
2023-05-29T21:01:56.252Z,16.18
2023-05-29T21:05:17.922Z,16.12
2023-05-29T21:08:40.976Z,16.03
2023-05-29T21:12:03.001Z,15.96
2023-05-29T21:15:24.538Z,15.88
2023-05-29T21:18:46.422Z,15.81
2023-05-29T21:22:08.598Z,15.75
2023-05-29T21:25:31.654Z,15.67
2023-05-29T21:28:53.615Z,15.58
2023-05-29T21:32:15.079Z,15.49
2023-05-29T21:35:39.075Z,15.40
2023-05-29T21:39:01.220Z,15.32
2023-05-29T21:42:24.378Z,15.23
2023-05-29T21:45:46.906Z,15.13
2023-05-29T21:49:08.607Z,15.01
2023-05-29T21:52:30.608Z,14.93
2023-05-29T21:55:52.356Z,14.82
2023-05-29T21:59:15.819Z,14.70
2023-05-29T22:02:38.529Z,14.60
2023-05-29T22:06:00.391Z,14.50
2023-05-29T22:09:22.033Z,14.37
2023-05-29T22:12:45.213Z,14.28
2023-05-29T22:16:09.308Z,14.17
2023-05-29T22:19:31.576Z,14.07
2023-05-29T22:22:58.532Z,13.98
2023-05-29T22:26:23.841Z,13.89
2023-05-29T22:29:45.648Z,13.80
2023-05-29T22:33:08.718Z,13.73
2023-05-29T22:36:31.089Z,13.64
2023-05-29T22:39:52.772Z,13.57
2023-05-29T22:43:14.833Z,13.49
2023-05-29T22:46:39.167Z,13.43
2023-05-29T22:50:03.684Z,13.36
2023-05-29T22:53:25.567Z,13.29
2023-05-29T22:56:47.390Z,13.20
2023-05-29T23:00:10.179Z,13.13
2023-05-29T23:03:31.672Z,13.04
2023-05-29T23:06:55.056Z,12.95
2023-05-29T23:10:16.324Z,12.88
2023-05-29T23:13:38.294Z,12.79
2023-05-29T23:17:00.220Z,12.71
2023-05-29T23:20:21.781Z,12.64
2023-05-29T23:23:44.932Z,12.56
2023-05-29T23:27:07.860Z,12.49
2023-05-29T23:30:29.319Z,12.41
2023-05-29T23:33:51.170Z,12.35
2023-05-29T23:37:13.866Z,12.28
2023-05-29T23:40:36.819Z,12.23
2023-05-29T23:43:58.731Z,12.16
2023-05-29T23:47:20.167Z,12.11
2023-05-29T23:50:43.348Z,12.05
2023-05-29T23:54:05.396Z,11.99
2023-05-29T23:57:28.609Z,11.94
